Decoded Metar for KLBO ( in ) (IATA:) | Meteo·Mobile Aviation Weather
aviador You're here:

KLBO Decoded Metar

in
Report Time2019-01-16 05:15:00
UTC Time2019-01-16 05:35:47
Flight Rules vfr VFR
Wind220° at 04 kt
W.Decomp.*RWY 18: 3.1 kt HW 2.6 kt RCW
W.Rank220° ranks 7
Current wind is below 220° avg. (7.6)
Visibility9999 m
Phenomena:N/A
Clouds:N/A
Expected CloudBase > 400 ft AGL from Temp-Dew spread
CeilingNone
Temp01°C
Dew Point00°C (93% RH)
AAT-2.4°C
QNH1022 hPa
Raw Report
KLBO 160515Z AUTO 22004KT 10SM CLR 01/00 A3019 RMK AO2=

Extra information for KLBO:More info

Social comments